Time;durP1;ratioP1;P1;durP2;ratioP2;P2;SDS_P1;SDS_P2;PMS_P1;PMS_P2;Temp;Humidity;BMP_temperature;BMP_pressure;BME280_temperature;BME280_humidity;BME280_pressure;Samples;Min_cycle;Max_cycle;Signal;HPM_P1;HPM_P2
2023/09/18 00:00:11;;;;;;;14.90;10.30;;;;;19.00;99985.00;;;;9987505;29;20307;-82
2023/09/18 00:05:15;;;;;;;14.75;10.13;;;;;19.00;99979.00;;;;9977370;29;20218;-83
2023/09/18 00:10:17;;;;;;;17.92;10.20;;;;;19.00;99972.00;;;;9974309;29;20248;-82
2023/09/18 00:15:19;;;;;;;12.52;9.48;;;;;19.00;99971.00;;;;9952285;29;20249;-83
2023/09/18 00:20:20;;;;;;;14.52;10.48;;;;;19.10;99973.00;;;;9973863;29;20217;-82
2023/09/18 00:25:22;;;;;;;14.05;9.88;;;;;19.20;99955.00;;;;9968822;29;20597;-84
2023/09/18 00:30:24;;;;;;;12.85;9.35;;;;;19.20;99966.00;;;;9988018;29;20589;-83
2023/09/18 00:35:25;;;;;;;13.70;10.02;;;;;19.30;99992.00;;;;9992137;29;20232;-81
2023/09/18 00:40:26;;;;;;;12.55;10.25;;;;;19.30;99968.00;;;;10004670;29;20720;-82
2023/09/18 00:45:28;;;;;;;14.10;10.23;;;;;19.40;99927.00;;;;9971918;29;20592;-83
2023/09/18 00:50:29;;;;;;;13.18;9.32;;;;;19.40;99976.00;;;;9994638;29;20285;-82
2023/09/18 00:55:32;;;;;;;15.35;10.05;;;;;19.30;99989.00;;;;9999507;29;20224;-81
2023/09/18 01:00:33;;;;;;;13.25;9.55;;;;;19.30;99998.00;;;;10013596;29;20245;-77
2023/09/18 01:05:35;;;;;;;16.38;11.50;;;;;19.40;99985.00;;;;9998967;29;20241;-77
2023/09/18 01:10:49;;;;;;;16.52;10.13;;;;;19.40;99974.00;;;;10021654;29;20241;-77
2023/09/18 01:16:08;;;;;;;14.23;10.38;;;;;19.40;99977.00;;;;10010592;29;20213;-78
2023/09/18 01:21:10;;;;;;;17.27;10.25;;;;;19.40;99966.00;;;;10007088;29;20251;-77
2023/09/18 01:26:11;;;;;;;12.70;9.95;;;;;19.50;99942.00;;;;9984305;29;20500;-77
2023/09/18 01:31:17;;;;;;;15.63;10.88;;;;;19.50;99938.00;;;;10017767;29;20811;-78
2023/09/18 01:36:20;;;;;;;10.63;9.20;;;;;19.50;99938.00;;;;9996199;29;20229;-78
2023/09/18 01:41:21;;;;;;;14.32;9.23;;;;;19.50;99933.00;;;;9990100;29;20244;-78
2023/09/18 01:46:24;;;;;;;15.65;10.20;;;;;19.50;99953.00;;;;9975759;29;20220;-78
2023/09/18 01:51:25;;;;;;;10.80;9.15;;;;;19.50;99937.00;;;;9975132;29;20236;-78
2023/09/18 01:56:26;;;;;;;13.48;8.98;;;;;19.50;99922.00;;;;10006804;29;20219;-78
2023/09/18 02:01:29;;;;;;;11.02;9.30;;;;;19.50;99904.00;;;;10003142;29;20709;-77
2023/09/18 02:06:31;;;;;;;13.52;9.63;;;;;19.50;99889.00;;;;9991327;29;20300;-77
2023/09/18 02:11:35;;;;;;;13.93;9.32;;;;;19.50;99891.00;;;;9996027;29;20312;-78
2023/09/18 02:16:40;;;;;;;16.13;8.90;;;;;19.50;99905.00;;;;9986501;29;20249;-77
2023/09/18 02:21:42;;;;;;;10.57;8.65;;;;;19.50;99914.00;;;;9987599;29;20615;-78
2023/09/18 02:26:45;;;;;;;10.13;9.07;;;;;19.40;99911.00;;;;9994126;29;20661;-77
2023/09/18 02:31:46;;;;;;;14.30;7.95;;;;;19.30;99917.00;;;;10014676;29;20229;-78
2023/09/18 02:36:48;;;;;;;10.40;9.30;;;;;19.30;99906.00;;;;9998768;29;20213;-78
2023/09/18 02:41:49;;;;;;;15.30;9.48;;;;;19.30;99887.00;;;;9995273;29;20589;-78
2023/09/18 02:46:50;;;;;;;10.57;8.90;;;;;19.30;99878.00;;;;9976747;29;20219;-78
2023/09/18 02:51:51;;;;;;;11.48;9.05;;;;;19.20;99884.00;;;;9989868;29;20222;-78
2023/09/18 02:56:53;;;;;;;9.48;8.48;;;;;19.20;99860.00;;;;9967977;29;20311;-78
2023/09/18 03:01:54;;;;;;;15.60;8.90;;;;;19.10;99851.00;;;;9984911;29;20218;-79
2023/09/18 03:06:56;;;;;;;9.52;8.15;;;;;19.10;99861.00;;;;9985446;29;20208;-79
2023/09/18 03:11:57;;;;;;;13.32;7.25;;;;;19.10;99866.00;;;;9994188;29;20231;-78
2023/09/18 03:17:00;;;;;;;13.80;8.30;;;;;19.00;99868.00;;;;9988341;29;20225;-78
2023/09/18 03:22:01;;;;;;;10.18;7.53;;;;;19.00;99869.00;;;;10010764;29;20295;-78
2023/09/18 03:27:03;;;;;;;8.65;6.93;;;;;19.00;99844.00;;;;10003959;29;20498;-78
2023/09/18 03:32:06;;;;;;;8.02;6.38;;;;;18.90;99847.00;;;;9987501;29;20248;-77
2023/09/18 03:37:09;;;;;;;11.18;7.70;;;;;18.90;99851.00;;;;10003132;29;20221;-78
2023/09/18 03:42:11;;;;;;;8.70;7.07;;;;;18.90;99841.00;;;;9983225;29;20219;-78
2023/09/18 03:47:12;;;;;;;9.65;6.85;;;;;18.90;99845.00;;;;9995187;29;20702;-77
2023/09/18 03:52:15;;;;;;;7.18;5.95;;;;;19.00;99850.00;;;;9981053;29;20218;-78
2023/09/18 03:57:17;;;;;;;6.13;4.90;;;;;18.90;99829.00;;;;10003710;29;20233;-78
2023/09/18 04:02:18;;;;;;;8.82;4.45;;;;;18.90;99811.00;;;;10013600;29;20757;-78
2023/09/18 04:07:20;;;;;;;6.28;3.92;;;;;18.80;99812.00;;;;10018231;29;20579;-78
2023/09/18 04:12:21;;;;;;;6.18;4.25;;;;;18.80;99797.00;;;;9999085;29;20226;-77
2023/09/18 04:17:24;;;;;;;5.85;3.67;;;;;18.80;99806.00;;;;10013238;29;20225;-78
2023/09/18 04:22:26;;;;;;;5.55;3.45;;;;;18.70;99802.00;;;;9987572;29;20213;-77
2023/09/18 04:27:27;;;;;;;7.30;3.47;;;;;18.60;99808.00;;;;10007814;29;20213;-77
2023/09/18 04:32:29;;;;;;;6.28;2.95;;;;;18.60;99795.00;;;;10000441;29;20279;-78
2023/09/18 04:37:31;;;;;;;3.17;2.90;;;;;18.60;99792.00;;;;10005144;29;20462;-77
2023/09/18 04:42:32;;;;;;;4.80;2.70;;;;;18.50;99800.00;;;;9992899;29;20791;-79
2023/09/18 04:47:34;;;;;;;7.43;2.45;;;;;18.40;99796.00;;;;9997049;29;20232;-77
2023/09/18 04:52:36;;;;;;;4.63;2.40;;;;;18.30;99796.00;;;;9999978;29;20237;-76
2023/09/18 04:57:38;;;;;;;4.47;2.22;;;;;18.20;99803.00;;;;9993942;29;20213;-78
2023/09/18 05:02:40;;;;;;;5.80;2.50;;;;;18.10;99803.00;;;;10014503;29;20932;-76
2023/09/18 05:07:42;;;;;;;5.70;2.22;;;;;18.00;99800.00;;;;9996539;29;20217;-78
2023/09/18 05:12:43;;;;;;;4.85;2.72;;;;;18.10;99804.00;;;;9997033;29;20229;-77
2023/09/18 05:17:47;;;;;;;6.35;2.80;;;;;18.10;99810.00;;;;10013241;29;20213;-76
2023/09/18 05:22:49;;;;;;;2.83;2.25;;;;;18.10;99818.00;;;;10004073;29;20300;-75
2023/09/18 05:27:56;;;;;;;4.18;2.20;;;;;18.10;99806.00;;;;9993523;29;20296;-76
2023/09/18 05:33:04;;;;;;;6.57;2.53;;;;;18.00;99817.00;;;;9963517;29;20230;-77
2023/09/18 05:38:06;;;;;;;3.40;2.08;;;;;18.00;99826.00;;;;10018802;29;20810;-77
2023/09/18 05:43:08;;;;;;;4.63;2.25;;;;;18.00;99835.00;;;;10010875;29;20216;-76
2023/09/18 05:48:09;;;;;;;7.22;2.20;;;;;17.90;99838.00;;;;9980343;29;20213;-78
2023/09/18 05:53:11;;;;;;;3.38;2.25;;;;;17.90;99813.00;;;;10005503;29;20240;-77
2023/09/18 05:58:12;;;;;;;4.72;2.55;;;;;17.90;99827.00;;;;10028241;29;20236;-78
2023/09/18 06:03:14;;;;;;;5.50;2.33;;;;;17.90;99847.00;;;;9994790;29;20758;-77
2023/09/18 06:08:17;;;;;;;4.38;2.10;;;;;17.90;99851.00;;;;9993616;29;20217;-78
2023/09/18 06:13:18;;;;;;;5.90;1.80;;;;;17.90;99851.00;;;;10001093;29;20249;-78
2023/09/18 06:18:23;;;;;;;3.65;2.35;;;;;18.00;99850.00;;;;10001169;29;20217;-78
2023/09/18 06:23:24;;;;;;;4.78;2.58;;;;;18.10;99859.00;;;;9982920;29;20266;-78
2023/09/18 06:28:25;;;;;;;7.05;2.45;;;;;18.20;99854.00;;;;9996392;29;20214;-78
2023/09/18 06:33:27;;;;;;;4.80;2.50;;;;;18.30;99863.00;;;;10006363;29;20288;-77
2023/09/18 06:38:28;;;;;;;4.10;2.00;;;;;18.40;99876.00;;;;9992270;29;20897;-77
2023/09/18 06:43:29;;;;;;;4.93;2.95;;;;;18.40;99876.00;;;;10004488;29;20686;-78
2023/09/18 06:48:32;;;;;;;3.75;2.47;;;;;18.40;99896.00;;;;10000743;29;20213;-78
2023/09/18 06:53:33;;;;;;;5.47;2.30;;;;;18.40;99898.00;;;;9991882;29;20471;-78
2023/09/18 06:58:35;;;;;;;5.30;2.38;;;;;18.50;99882.00;;;;9984857;29;20303;-79
2023/09/18 07:03:36;;;;;;;4.18;2.53;;;;;18.50;99885.00;;;;9983532;29;20583;-79
2023/09/18 07:08:38;;;;;;;5.13;2.80;;;;;18.60;99886.00;;;;9978620;29;20221;-79
2023/09/18 07:13:39;;;;;;;5.15;3.58;;;;;18.60;99875.00;;;;10004783;29;20724;-78
2023/09/18 07:18:40;;;;;;;6.90;3.20;;;;;18.60;99893.00;;;;10009354;29;20225;-76
2023/09/18 07:23:42;;;;;;;9.68;3.75;;;;;18.50;99896.00;;;;9957223;29;20421;-76
2023/09/18 07:28:44;;;;;;;5.85;3.10;;;;;18.50;99903.00;;;;9987419;29;20248;-80
2023/09/18 07:33:46;;;;;;;6.65;3.42;;;;;18.80;99897.00;;;;9987072;29;20612;-81
2023/09/18 07:38:47;;;;;;;4.50;3.03;;;;;18.70;99889.00;;;;9984703;29;20213;-80
2023/09/18 07:43:48;;;;;;;7.65;3.00;;;;;18.90;99893.00;;;;9986785;29;20216;-81
2023/09/18 07:48:50;;;;;;;4.90;3.28;;;;;19.70;99877.00;;;;10013142;29;20217;-79
2023/09/18 07:53:52;;;;;;;5.13;2.50;;;;;20.00;99872.00;;;;10015369;29;20726;-80
2023/09/18 07:58:53;;;;;;;7.40;2.92;;;;;20.30;99879.00;;;;10005860;29;20252;-81
2023/09/18 08:03:56;;;;;;;4.30;2.42;;;;;20.70;99863.00;;;;9979683;29;20222;-78
2023/09/18 08:08:58;;;;;;;4.80;2.40;;;;;20.90;99876.00;;;;9972753;29;20213;-82
2023/09/18 08:13:59;;;;;;;7.78;2.75;;;;;21.30;99884.00;;;;9983364;29;20318;-82
2023/09/18 08:19:01;;;;;;;7.20;2.78;;;;;21.70;99903.00;;;;9986908;29;20233;-81
2023/09/18 08:24:03;;;;;;;4.93;2.85;;;;;22.40;99910.00;;;;9992044;29;20225;-81
2023/09/18 08:29:04;;;;;;;8.15;2.65;;;;;22.50;99926.00;;;;9980041;29;1134547;-78
2023/09/18 08:34:06;;;;;;;4.97;3.08;;;;;22.70;99932.00;;;;10060631;29;20237;-81
2023/09/18 08:39:09;;;;;;;7.85;3.08;;;;;22.70;99946.00;;;;10039507;29;20727;-80
2023/09/18 08:44:11;;;;;;;7.18;3.42;;;;;22.70;99961.00;;;;10039468;29;20216;-81
2023/09/18 08:49:15;;;;;;;6.68;3.03;;;;;22.40;99964.00;;;;10027751;29;20200;-81
2023/09/18 08:54:17;;;;;;;11.48;4.20;;;;;22.10;99965.00;;;;10045404;29;20248;-81
2023/09/18 08:59:21;;;;;;;5.20;3.08;;;;;22.50;99970.00;;;;10056406;29;20213;-80
2023/09/18 09:04:24;;;;;;;7.82;3.70;;;;;23.10;99962.00;;;;10026432;29;20213;-79
2023/09/18 09:09:28;;;;;;;7.07;3.42;;;;;23.20;99981.00;;;;10048794;29;20197;-80
2023/09/18 09:14:29;;;;;;;7.15;3.22;;;;;22.90;99982.00;;;;10032804;29;21295;-79
2023/09/18 09:19:36;;;;;;;7.75;3.00;;;;;22.60;99986.00;;;;10018183;29;20614;-80
2023/09/18 09:24:41;;;;;;;12.88;3.63;;;;;22.50;99979.00;;;;10019522;29;20231;-82
2023/09/18 09:29:57;;;;;;;7.47;3.17;;;;;22.40;99981.00;;;;10039614;29;20330;-79
2023/09/18 09:35:06;;;;;;;8.88;3.72;;;;;22.30;99981.00;;;;10009995;29;20216;-86
2023/09/18 09:40:14;;;;;;;6.75;3.45;;;;;22.10;99969.00;;;;10012737;29;20212;-83
2023/09/18 09:45:16;;;;;;;6.40;3.72;;;;;22.20;99981.00;;;;10034833;29;20727;-81
2023/09/18 09:50:18;;;;;;;9.25;3.42;;;;;22.10;99983.00;;;;10041238;29;20899;-80
2023/09/18 09:55:26;;;;;;;7.53;3.33;;;;;22.10;99998.00;;;;10027133;29;20311;-81
2023/09/18 10:00:43;;;;;;;5.75;3.20;;;;;21.70;100010.00;;;;10012157;29;20239;-82
2023/09/18 10:05:50;;;;;;;4.95;3.42;;;;;21.60;100002.00;;;;10029499;29;20694;-85
2023/09/18 10:10:54;;;;;;;4.82;3.47;;;;;21.50;100011.00;;;;10023190;29;20248;-81
2023/09/18 10:16:00;;;;;;;6.13;3.55;;;;;21.70;100003.00;;;;10028672;29;20209;-80
2023/09/18 10:21:27;;;;;;;5.80;3.17;;;;;21.90;100010.00;;;;10058819;29;20285;-81
2023/09/18 10:26:34;;;;;;;5.88;3.55;;;;;21.80;100004.00;;;;9997557;29;20219;-80
2023/09/18 10:31:37;;;;;;;5.68;3.30;;;;;22.20;100005.00;;;;10015852;29;21068;-82
2023/09/18 10:36:41;;;;;;;4.63;3.90;;;;;22.50;100005.00;;;;10027713;29;20248;-81
2023/09/18 10:41:45;;;;;;;5.72;3.05;;;;;23.20;100001.00;;;;10021272;29;20750;-81
2023/09/18 10:46:55;;;;;;;4.50;2.95;;;;;23.70;100013.00;;;;10042590;29;20225;-80
2023/09/18 10:51:58;;;;;;;6.93;2.40;;;;;23.70;100011.00;;;;10029606;29;20241;-80
2023/09/18 10:57:01;;;;;;;5.40;3.10;;;;;23.40;100012.00;;;;10004056;29;20226;-82
2023/09/18 11:02:07;;;;;;;7.45;2.65;;;;;24.10;100000.00;;;;10043003;29;20217;-81
2023/09/18 11:07:18;;;;;;;9.30;2.92;;;;;25.00;100006.00;;;;10006672;29;20216;-80
2023/09/18 11:12:44;;;;;;;4.63;2.95;;;;;25.40;99987.00;;;;10049018;29;20251;-80
2023/09/18 11:17:58;;;;;;;4.15;2.60;;;;;25.90;99996.00;;;;10031858;29;20216;-81
2023/09/18 11:23:13;;;;;;;5.40;2.58;;;;;26.20;99986.00;;;;10028619;29;20224;-79
2023/09/18 11:28:23;;;;;;;3.38;2.58;;;;;26.40;99982.00;;;;10021530;29;20631;-82
2023/09/18 11:33:37;;;;;;;5.13;2.60;;;;;26.40;100001.00;;;;10041215;29;20263;-81
2023/09/18 11:38:56;;;;;;;3.28;2.40;;;;;25.60;100004.00;;;;10017486;29;20420;-80
2023/09/18 11:44:18;;;;;;;4.25;2.38;;;;;24.40;100014.00;;;;9992599;29;20221;-80
2023/09/18 11:49:22;;;;;;;5.40;2.13;;;;;24.40;99999.00;;;;10019844;29;20220;-79
2023/09/18 11:54:25;;;;;;;6.38;2.40;;;;;25.20;99985.00;;;;10023314;29;20950;-80
2023/09/18 11:59:42;;;;;;;3.13;2.00;;;;;26.00;99978.00;;;;10046978;29;20247;-79
2023/09/18 12:04:48;;;;;;;2.90;2.30;;;;;26.00;99982.00;;;;10033895;29;20259;-80
2023/09/18 12:09:50;;;;;;;6.95;2.08;;;;;26.40;99954.00;;;;10007648;29;20216;-78
2023/09/18 12:14:53;;;;;;;3.85;2.42;;;;;27.00;99942.00;;;;10039834;29;20231;-80
2023/09/18 12:19:56;;;;;;;5.72;2.10;;;;;27.10;99931.00;;;;10018417;29;20208;-79
2023/09/18 12:25:14;;;;;;;6.07;2.13;;;;;27.10;99921.00;;;;10000783;29;20700;-80
2023/09/18 12:30:20;;;;;;;5.05;1.85;;;;;27.20;99910.00;;;;10032580;29;20735;-79
2023/09/18 12:35:25;;;;;;;3.55;1.90;;;;;27.30;99912.00;;;;10069864;29;20303;-80
2023/09/18 12:40:30;;;;;;;3.15;2.00;;;;;27.30;99904.00;;;;10039509;29;20889;-80
2023/09/18 12:45:32;;;;;;;5.07;1.50;;;;;27.10;99899.00;;;;10045323;29;20220;-80
2023/09/18 12:50:37;;;;;;;2.78;1.92;;;;;26.50;99903.00;;;;9998060;29;20249;-83
2023/09/18 12:55:40;;;;;;;5.85;2.47;;;;;26.30;99899.00;;;;10020147;29;20252;-83
2023/09/18 13:00:49;;;;;;;3.22;1.98;;;;;26.80;99883.00;;;;10015384;29;20601;-84
2023/09/18 13:05:54;;;;;;;3.33;2.08;;;;;27.10;99872.00;;;;10041003;29;20301;-84
2023/09/18 13:10:57;;;;;;;5.07;1.73;;;;;25.80;99863.00;;;;10008308;29;20323;-84
2023/09/18 13:16:04;;;;;;;8.70;2.30;;;;;26.30;99855.00;;;;10030863;29;20212;-84
2023/09/18 13:21:13;;;;;;;6.32;1.92;;;;;26.50;99828.00;;;;9998210;29;20952;-83
2023/09/18 13:26:15;;;;;;;6.30;1.85;;;;;26.50;99852.00;;;;10038659;29;20224;-83
2023/09/18 13:31:19;;;;;;;4.32;2.00;;;;;26.40;99838.00;;;;10041980;29;20232;-84
2023/09/18 13:36:21;;;;;;;3.03;1.70;;;;;26.30;99836.00;;;;10031236;29;20266;-81
2023/09/18 13:41:23;;;;;;;2.78;1.88;;;;;26.10;99839.00;;;;10039514;29;20227;-83
2023/09/18 13:46:25;;;;;;;8.65;1.90;;;;;26.60;99829.00;;;;10017638;29;20212;-85
2023/09/18 13:51:28;;;;;;;4.05;1.55;;;;;26.80;99850.00;;;;10015147;29;20710;-84
2023/09/18 13:56:30;;;;;;;4.97;1.63;;;;;26.00;99835.00;;;;10025188;29;20212;-84
2023/09/18 14:01:33;;;;;;;3.90;1.98;;;;;25.50;99828.00;;;;10035331;29;20233;-81
2023/09/18 14:06:34;;;;;;;3.20;1.63;;;;;25.40;99834.00;;;;10031833;29;20213;-81
2023/09/18 14:11:38;;;;;;;6.40;2.00;;;;;25.40;99826.00;;;;10013090;29;20723;-81
2023/09/18 14:16:40;;;;;;;5.03;1.73;;;;;25.20;99833.00;;;;9998560;29;20236;-81
2023/09/18 14:21:42;;;;;;;3.42;1.88;;;;;24.80;99822.00;;;;10003079;29;20235;-82
2023/09/18 14:26:44;;;;;;;4.28;2.10;;;;;25.00;99826.00;;;;10028644;29;20223;-81
2023/09/18 14:31:47;;;;;;;7.32;1.75;;;;;24.80;99819.00;;;;10005948;29;20233;-81
2023/09/18 14:36:49;;;;;;;2.53;2.00;;;;;24.10;99809.00;;;;10049152;29;20213;-83
2023/09/18 14:41:51;;;;;;;6.07;2.00;;;;;23.50;99805.00;;;;10033249;29;20829;-83
2023/09/18 14:46:54;;;;;;;6.05;1.90;;;;;22.90;99861.00;;;;10034527;29;20320;-85
2023/09/18 14:51:56;;;;;;;7.03;2.47;;;;;20.90;99924.00;;;;9999827;29;20228;-89
2023/09/18 14:56:59;;;;;;;7.13;1.98;;;;;19.40;99899.00;;;;9990869;29;20236;-84
2023/09/18 15:02:03;;;;;;;3.50;2.17;;;;;19.40;99870.00;;;;10022792;29;20462;-81
2023/09/18 15:07:05;;;;;;;4.20;2.75;;;;;19.30;99872.00;;;;10039167;29;20319;-82
2023/09/18 15:12:07;;;;;;;8.68;2.60;;;;;19.80;99866.00;;;;10000910;29;20229;-82
2023/09/18 15:17:09;;;;;;;4.00;2.35;;;;;20.50;99868.00;;;;10011864;29;20220;-85
2023/09/18 15:22:11;;;;;;;3.50;2.72;;;;;20.20;99874.00;;;;10022098;29;20225;-87
2023/09/18 15:27:13;;;;;;;3.85;2.70;;;;;19.90;99869.00;;;;10030941;29;20216;-86
2023/09/18 15:32:15;;;;;;;5.22;2.67;;;;;19.70;99867.00;;;;10043487;29;20256;-88
2023/09/18 15:37:18;;;;;;;6.38;2.65;;;;;19.50;99872.00;;;;10040059;29;20240;-86
2023/09/18 15:42:20;;;;;;;5.50;3.33;;;;;19.30;99876.00;;;;10064155;29;20220;-88
2023/09/18 15:47:22;;;;;;;7.03;3.20;;;;;19.00;99888.00;;;;10055499;29;20240;-90
2023/09/18 15:52:24;;;;;;;5.78;3.38;;;;;19.00;99878.00;;;;10028082;29;20378;-85
2023/09/18 15:57:28;;;;;;;3.80;2.72;;;;;19.20;99888.00;;;;10041457;29;20253;-86
2023/09/18 16:02:33;;;;;;;4.00;3.60;;;;;19.70;99892.00;;;;10042655;29;20218;-87
2023/09/18 16:07:37;;;;;;;3.08;2.55;;;;;19.90;99898.00;;;;10025620;29;20239;-84
2023/09/18 16:12:39;;;;;;;3.63;2.58;;;;;19.80;99893.00;;;;10031025;29;20240;-85
2023/09/18 16:17:41;;;;;;;3.33;2.35;;;;;19.30;99905.00;;;;10038454;29;20212;-84
2023/09/18 16:22:46;;;;;;;7.00;2.50;;;;;18.90;99902.00;;;;10045249;29;20616;-83
2023/09/18 16:27:48;;;;;;;2.83;2.45;;;;;18.80;99911.00;;;;10010468;29;20229;-83
2023/09/18 16:32:50;;;;;;;3.05;2.22;;;;;18.70;99910.00;;;;10032393;29;20874;-82
2023/09/18 16:37:53;;;;;;;2.40;2.15;;;;;18.80;99923.00;;;;10014731;29;20305;-82
2023/09/18 16:42:55;;;;;;;3.17;2.25;;;;;19.00;99924.00;;;;10038038;29;20208;-83
2023/09/18 16:47:57;;;;;;;2.83;2.53;;;;;18.90;99914.00;;;;10025687;29;20209;-82
2023/09/18 16:52:59;;;;;;;3.33;2.10;;;;;18.90;99926.00;;;;10040237;29;20241;-81
2023/09/18 16:58:01;;;;;;;4.93;2.47;;;;;18.80;99928.00;;;;10049017;29;20594;-81
2023/09/18 17:03:04;;;;;;;3.63;1.65;;;;;18.70;99929.00;;;;10029306;29;20675;-82
2023/09/18 17:08:06;;;;;;;4.97;1.92;;;;;18.40;99932.00;;;;10030331;29;20300;-83
2023/09/18 17:13:11;;;;;;;4.32;1.98;;;;;18.10;99944.00;;;;10047127;29;20229;-82
2023/09/18 17:18:14;;;;;;;6.32;1.67;;;;;17.90;99937.00;;;;10022473;29;20303;-81
2023/09/18 17:23:17;;;;;;;8.18;2.00;;;;;17.80;99954.00;;;;10031637;29;20221;-81
2023/09/18 17:28:19;;;;;;;3.72;1.63;;;;;17.80;99956.00;;;;10005718;29;20213;-79
2023/09/18 17:33:21;;;;;;;4.68;1.30;;;;;17.90;99962.00;;;;10041525;29;20236;-79
2023/09/18 17:38:24;;;;;;;4.35;1.77;;;;;17.80;99962.00;;;;10033296;29;20275;-79
2023/09/18 17:43:26;;;;;;;7.00;1.65;;;;;17.70;99981.00;;;;10035285;29;20248;-80
2023/09/18 17:48:28;;;;;;;3.35;1.63;;;;;17.70;99980.00;;;;9998739;29;20219;-80
2023/09/18 17:53:30;;;;;;;3.75;1.70;;;;;17.60;99973.00;;;;10025342;29;20807;-79
2023/09/18 17:58:32;;;;;;;7.40;2.15;;;;;17.50;99979.00;;;;10005297;29;20236;-79
2023/09/18 18:03:34;;;;;;;4.97;1.70;;;;;17.30;99982.00;;;;9978630;29;20244;-79
2023/09/18 18:08:37;;;;;;;6.45;2.05;;;;;17.20;99988.00;;;;10040687;29;20235;-79
2023/09/18 18:13:39;;;;;;;4.35;1.75;;;;;17.20;99995.00;;;;10006260;29;20661;-78
2023/09/18 18:18:41;;;;;;;5.63;2.10;;;;;17.10;99997.00;;;;10036102;29;20212;-79
2023/09/18 18:23:43;;;;;;;6.57;1.70;;;;;17.10;99997.00;;;;10039488;29;20212;-79
2023/09/18 18:28:46;;;;;;;4.25;1.60;;;;;17.00;100015.00;;;;10017585;29;20808;-81
2023/09/18 18:33:48;;;;;;;5.93;1.65;;;;;17.00;100019.00;;;;10022084;29;20235;-79
2023/09/18 18:38:52;;;;;;;6.05;1.95;;;;;16.90;100027.00;;;;9994964;29;20227;-83
2023/09/18 18:43:54;;;;;;;6.40;2.40;;;;;16.90;100036.00;;;;10025015;29;20843;-82
2023/09/18 18:48:56;;;;;;;7.38;1.88;;;;;16.80;100046.00;;;;9989688;29;20233;-81
2023/09/18 18:54:00;;;;;;;6.40;2.00;;;;;16.80;100055.00;;;;10025251;29;20317;-84
2023/09/18 18:59:02;;;;;;;7.45;2.00;;;;;16.80;100065.00;;;;10023703;29;20244;-82
2023/09/18 19:04:04;;;;;;;9.48;2.13;;;;;16.70;100074.00;;;;10041754;29;20307;-83
2023/09/18 19:09:06;;;;;;;4.80;2.10;;;;;16.70;100073.00;;;;10032599;29;20553;-81
2023/09/18 19:14:08;;;;;;;7.15;1.90;;;;;16.60;100074.00;;;;10012852;29;20236;-82
2023/09/18 19:19:10;;;;;;;9.02;2.10;;;;;16.50;100080.00;;;;10011306;29;20296;-83
2023/09/18 19:24:12;;;;;;;7.05;2.08;;;;;16.50;100099.00;;;;10009356;29;20279;-81
2023/09/18 19:29:16;;;;;;;7.13;1.90;;;;;16.40;100107.00;;;;10011948;29;20303;-81
2023/09/18 19:34:18;;;;;;;7.22;2.47;;;;;16.50;100107.00;;;;10035173;29;20236;-82
2023/09/18 19:39:21;;;;;;;8.18;2.40;;;;;16.40;100129.00;;;;10019048;29;20216;-80
2023/09/18 19:44:24;;;;;;;11.85;2.70;;;;;16.40;100139.00;;;;10011220;29;20300;-82
2023/09/18 19:49:27;;;;;;;7.78;2.17;;;;;16.40;100146.00;;;;10038027;29;20596;-78
2023/09/18 19:54:30;;;;;;;11.88;3.13;;;;;16.30;100161.00;;;;9984801;29;20241;-78
2023/09/18 19:59:32;;;;;;;11.02;2.72;;;;;16.30;100156.00;;;;10035451;29;20240;-78
2023/09/18 20:04:35;;;;;;;10.90;2.42;;;;;16.20;100177.00;;;;10014976;29;20213;-78
2023/09/18 20:09:37;;;;;;;12.90;2.65;;;;;16.10;100174.00;;;;10026113;29;20827;-81
2023/09/18 20:14:41;;;;;;;9.05;2.85;;;;;16.00;100171.00;;;;10035942;29;20861;-77
2023/09/18 20:19:45;;;;;;;11.43;2.67;;;;;16.00;100166.00;;;;10008331;29;20217;-77
2023/09/18 20:24:47;;;;;;;13.63;2.78;;;;;15.90;100185.00;;;;9982418;29;20224;-77
2023/09/18 20:29:49;;;;;;;7.97;2.40;;;;;15.70;100188.00;;;;10054157;29;20252;-78
2023/09/18 20:34:51;;;;;;;17.15;3.60;;;;;15.60;100178.00;;;;10003091;29;20236;-79
2023/09/18 20:39:54;;;;;;;18.95;3.70;;;;;15.60;100182.00;;;;10020392;29;20251;-77
2023/09/18 20:44:57;;;;;;;10.65;2.90;;;;;15.60;100191.00;;;;10043809;29;20221;-78
2023/09/18 20:49:59;;;;;;;12.45;2.92;;;;;15.60;100191.00;;;;10014017;29;20210;-78
2023/09/18 20:55:02;;;;;;;12.63;2.95;;;;;15.60;100203.00;;;;10042511;29;20241;-78
2023/09/18 21:00:06;;;;;;;13.07;2.90;;;;;15.40;100204.00;;;;10019607;29;20216;-80
2023/09/18 21:05:08;;;;;;;17.90;3.30;;;;;15.30;100206.00;;;;10052874;29;20703;-79
2023/09/18 21:10:10;;;;;;;9.88;2.72;;;;;15.30;100209.00;;;;9991526;29;20211;-80
2023/09/18 21:15:14;;;;;;;15.13;3.60;;;;;15.30;100225.00;;;;10039472;29;20610;-81
2023/09/18 21:20:15;;;;;;;12.18;3.33;;;;;15.30;100225.00;;;;10025953;29;20269;-81
2023/09/18 21:25:17;;;;;;;12.75;3.22;;;;;15.20;100229.00;;;;10020804;29;20218;-82
2023/09/18 21:30:19;;;;;;;14.43;3.15;;;;;15.20;100243.00;;;;10029641;29;20284;-80
2023/09/18 21:35:21;;;;;;;11.10;2.90;;;;;15.10;100237.00;;;;10025460;29;20982;-80
2023/09/18 21:40:24;;;;;;;17.75;4.70;;;;;15.00;100257.00;;;;10014476;29;20218;-80
2023/09/18 21:45:26;;;;;;;15.65;3.72;;;;;15.00;100246.00;;;;10030801;29;20259;-79
2023/09/18 21:50:28;;;;;;;10.43;3.38;;;;;15.00;100252.00;;;;10035386;29;20217;-80
2023/09/18 21:55:30;;;;;;;15.82;3.38;;;;;14.90;100258.00;;;;10009789;29;20256;-79
2023/09/18 22:00:40;;;;;;;12.98;2.83;;;;;14.90;100281.00;;;;10016983;29;20228;-81
2023/09/18 22:05:42;;;;;;;12.93;3.03;;;;;14.90;100287.00;;;;10045197;29;20213;-82
2023/09/18 22:10:45;;;;;;;21.38;3.30;;;;;14.90;100292.00;;;;10026629;29;20668;-87
2023/09/18 22:15:48;;;;;;;12.90;3.15;;;;;14.80;100302.00;;;;10025769;29;20232;-81
2023/09/18 22:20:51;;;;;;;15.88;3.05;;;;;14.80;100310.00;;;;10006425;29;20209;-86
2023/09/18 22:25:54;;;;;;;8.70;2.75;;;;;14.80;100320.00;;;;10040754;29;20261;-89
2023/09/18 22:30:58;;;;;;;14.02;3.13;;;;;14.80;100320.00;;;;10054034;29;20209;-85
2023/09/18 22:36:00;;;;;;;8.45;3.00;;;;;14.80;100326.00;;;;10014042;29;20228;-86
2023/09/18 22:41:17;;;;;;;17.02;3.78;;;;;14.80;100339.00;;;;10046153;29;20231;-85
2023/09/18 22:46:58;;;;;;;9.63;2.63;;;;;14.80;100344.00;;;;10024971;29;20587;-86
2023/09/18 22:52:40;;;;;;;11.57;2.55;;;;;14.80;100353.00;;;;10034102;29;20236;-85
2023/09/18 22:58:00;;;;;;;17.55;2.90;;;;;14.80;100352.00;;;;10052281;29;20222;-86
2023/09/18 23:03:04;;;;;;;12.82;2.83;;;;;14.80;100366.00;;;;10026594;29;20228;-84
2023/09/18 23:08:07;;;;;;;10.68;2.70;;;;;14.80;100375.00;;;;10081008;29;20214;-79
2023/09/18 23:13:10;;;;;;;11.35;2.75;;;;;14.70;100374.00;;;;10064555;29;20277;-84
2023/09/18 23:18:16;;;;;;;13.25;2.58;;;;;14.70;100379.00;;;;10040125;29;20263;-78
2023/09/18 23:23:18;;;;;;;10.68;2.58;;;;;14.70;100387.00;;;;10005191;29;20213;-78
2023/09/18 23:28:20;;;;;;;15.02;2.60;;;;;14.70;100399.00;;;;10032261;29;20217;-78
2023/09/18 23:33:27;;;;;;;10.65;2.97;;;;;14.70;100404.00;;;;10008377;29;20225;-78
2023/09/18 23:38:31;;;;;;;12.95;3.00;;;;;14.70;100409.00;;;;10021964;29;20760;-78
2023/09/18 23:43:36;;;;;;;11.80;3.10;;;;;14.70;100415.00;;;;10023758;29;20220;-78
2023/09/18 23:48:41;;;;;;;14.55;2.60;;;;;14.70;100420.00;;;;10009348;29;20269;-79
2023/09/18 23:53:44;;;;;;;11.30;2.63;;;;;14.60;100432.00;;;;10009752;29;20263;-78
2023/09/18 23:58:47;;;;;;;15.13;2.92;;;;;14.60;100438.00;;;;10049632;29;20311;-78
